Time;durP1;ratioP1;P1;durP2;ratioP2;P2;SDS_P1;SDS_P2;PMS_P1;PMS_P2;Temp;Humidity;BMP_temperature;BMP_pressure;BME280_temperature;BME280_humidity;BME280_pressure;Samples;Min_cycle;Max_cycle;Signal;HPM_P1;HPM_P2
2023/08/21 00:01:30;;;;;;;11.45;4.40;;;16.50;99.90;;;;;;5062226;28;20039;-87
2023/08/21 00:03:57;;;;;;;9.65;4.60;;;16.50;99.90;;;;;;5062061;28;20423;-87
2023/08/21 00:06:24;;;;;;;10.73;4.50;;;16.40;99.90;;;;;;5062570;28;20105;-87
2023/08/21 00:08:50;;;;;;;9.35;4.45;;;16.40;99.90;;;;;;5095421;28;20072;-87
2023/08/21 00:11:17;;;;;;;9.05;4.57;;;16.40;99.90;;;;;;5078668;28;20097;-87
2023/08/21 00:13:47;;;;;;;8.95;4.60;;;16.40;99.90;;;;;;5062005;28;20097;-86
2023/08/21 00:16:14;;;;;;;7.97;4.28;;;16.30;99.90;;;;;;5062480;28;20556;-87
2023/08/21 00:18:41;;;;;;;7.22;4.00;;;16.30;99.90;;;;;;5078378;28;20138;-87
2023/08/21 00:21:07;;;;;;;10.10;4.53;;;16.30;99.90;;;;;;5078348;28;20468;-87
2023/08/21 00:23:34;;;;;;;7.75;4.57;;;16.30;99.90;;;;;;5078129;28;20051;-87
2023/08/21 00:26:01;;;;;;;10.02;5.38;;;16.30;99.90;;;;;;5077910;28;20040;-87
2023/08/21 00:28:32;;;;;;;8.70;4.72;;;16.20;99.90;;;;;;5095138;28;20044;-88
2023/08/21 00:31:03;;;;;;;10.75;4.88;;;16.20;99.90;;;;;;5063136;28;20492;-87
2023/08/21 00:33:31;;;;;;;11.25;4.55;;;16.10;99.90;;;;;;5095439;28;20040;-87
2023/08/21 00:35:58;;;;;;;9.60;4.82;;;16.20;99.90;;;;;;5094700;28;20063;-87
2023/08/21 00:38:26;;;;;;;11.63;4.38;;;16.10;99.90;;;;;;5078951;28;20043;-87
2023/08/21 00:40:53;;;;;;;10.40;4.93;;;16.10;99.90;;;;;;5094649;28;20492;-87
2023/08/21 00:43:20;;;;;;;8.13;4.63;;;16.10;99.90;;;;;;5078416;28;20048;-88
2023/08/21 00:45:48;;;;;;;10.77;5.43;;;16.10;99.90;;;;;;5077986;28;20404;-87
2023/08/21 00:48:15;;;;;;;12.13;5.68;;;16.00;99.90;;;;;;5061335;28;20496;-87
2023/08/21 00:50:43;;;;;;;10.88;4.90;;;16.00;99.90;;;;;;5078369;28;20051;-87
2023/08/21 00:53:10;;;;;;;8.40;4.50;;;16.00;99.90;;;;;;5094427;28;20040;-87
2023/08/21 00:55:38;;;;;;;9.00;4.38;;;16.00;99.90;;;;;;5078270;28;20040;-87
2023/08/21 00:58:05;;;;;;;10.00;4.55;;;16.00;99.90;;;;;;5077740;28;20036;-87
2023/08/21 01:00:33;;;;;;;8.90;4.20;;;15.90;99.90;;;;;;5078124;28;20408;-87
2023/08/21 01:03:00;;;;;;;11.13;4.30;;;15.90;99.90;;;;;;5094109;28;20487;-87
2023/08/21 01:05:27;;;;;;;9.43;4.35;;;15.90;99.90;;;;;;5094256;28;20051;-87
2023/08/21 01:08:29;;;;;;;13.25;4.50;;;15.90;99.90;;;;;;5077446;28;20040;-87
2023/08/21 01:11:16;;;;;;;7.30;4.45;;;15.80;99.90;;;;;;5007396;28;20046;-87
2023/08/21 01:13:59;;;;;;;10.95;4.60;;;15.80;99.90;;;;;;5110624;28;20131;-87
2023/08/21 01:16:27;;;;;;;8.75;3.97;;;15.80;99.90;;;;;;5094414;28;20047;-87
2023/08/21 01:18:54;;;;;;;9.13;4.13;;;15.80;99.90;;;;;;5077883;28;20504;-88
2023/08/21 01:21:21;;;;;;;8.32;4.05;;;15.70;99.90;;;;;;5093939;28;20052;-87
2023/08/21 01:23:48;;;;;;;11.38;4.60;;;15.70;99.90;;;;;;5061372;28;20044;-88
2023/08/21 01:26:14;;;;;;;9.68;4.38;;;15.70;99.90;;;;;;5060655;28;20036;-88
2023/08/21 01:28:42;;;;;;;12.70;5.00;;;15.70;99.90;;;;;;5060726;28;20551;-88
2023/08/21 01:31:18;;;;;;;11.75;5.28;;;15.70;99.90;;;;;;5077167;28;20507;-88
2023/08/21 01:33:49;;;;;;;11.02;4.88;;;15.60;99.90;;;;;;5094065;28;20043;-88
2023/08/21 01:36:17;;;;;;;12.50;4.68;;;15.60;99.90;;;;;;5093924;28;20046;-88
2023/08/21 01:38:44;;;;;;;11.95;5.10;;;15.60;99.90;;;;;;5060817;28;20521;-88
2023/08/21 01:41:11;;;;;;;9.98;4.78;;;15.60;99.90;;;;;;5076857;28;20078;-88
2023/08/21 01:43:38;;;;;;;9.57;4.32;;;15.50;99.90;;;;;;5076810;28;20040;-88
2023/08/21 01:46:06;;;;;;;13.88;4.75;;;15.50;99.90;;;;;;5060651;28;20047;-88
2023/08/21 01:48:32;;;;;;;10.90;5.05;;;15.50;99.90;;;;;;5077168;28;20051;-88
2023/08/21 01:51:02;;;;;;;11.25;5.28;;;15.50;99.90;;;;;;5076604;28;20039;-87
2023/08/21 01:53:29;;;;;;;10.60;5.00;;;15.50;99.90;;;;;;5076979;28;20035;-88
2023/08/21 01:55:55;;;;;;;9.40;4.50;;;15.40;99.90;;;;;;5094053;28;20127;-88
2023/08/21 01:58:22;;;;;;;12.52;4.93;;;15.30;99.90;;;;;;5076795;28;20131;-88
2023/08/21 02:00:49;;;;;;;11.35;4.60;;;15.40;99.90;;;;;;5060533;28;20044;-88
2023/08/21 02:03:15;;;;;;;11.95;4.85;;;15.40;99.90;;;;;;5076592;28;20508;-88
2023/08/21 02:05:42;;;;;;;9.80;4.28;;;15.40;99.90;;;;;;5076874;28;20036;-88
2023/08/21 02:08:12;;;;;;;13.38;4.97;;;15.30;99.90;;;;;;5060665;28;20040;-87
2023/08/21 02:10:49;;;;;;;9.15;4.03;;;15.30;99.90;;;;;;5076796;28;20052;-88
2023/08/21 02:13:15;;;;;;;9.80;4.70;;;15.30;99.90;;;;;;5093782;28;20047;-89
2023/08/21 02:15:42;;;;;;;6.82;4.07;;;15.30;99.90;;;;;;5076729;28;20048;-88
2023/08/21 02:18:09;;;;;;;8.45;4.20;;;15.30;99.90;;;;;;5060047;28;20040;-88
2023/08/21 02:20:36;;;;;;;9.68;4.50;;;15.20;99.90;;;;;;5060144;28;20123;-88
2023/08/21 02:23:02;;;;;;;8.40;4.95;;;15.20;99.90;;;;;;5076454;28;20040;-87
2023/08/21 02:25:31;;;;;;;10.60;4.50;;;15.20;99.90;;;;;;5076801;28;20458;-88
2023/08/21 02:27:57;;;;;;;12.02;4.90;;;15.20;99.90;;;;;;5060395;28;20102;-88
2023/08/21 02:30:27;;;;;;;6.72;3.80;;;15.20;99.90;;;;;;5060096;28;20070;-88
2023/08/21 02:32:54;;;;;;;9.32;4.60;;;15.10;99.90;;;;;;5093072;28;20036;-88
2023/08/21 02:35:21;;;;;;;10.00;4.20;;;15.10;99.90;;;;;;5092906;28;20377;-88
2023/08/21 02:37:47;;;;;;;11.00;4.82;;;15.10;99.90;;;;;;5093068;28;20471;-88
2023/08/21 02:40:14;;;;;;;11.05;4.32;;;15.10;99.90;;;;;;5077953;28;20134;-88
2023/08/21 02:42:41;;;;;;;11.63;4.13;;;15.10;99.90;;;;;;5097494;28;20105;-87
2023/08/21 02:45:08;;;;;;;8.48;4.00;;;15.00;99.90;;;;;;5063922;28;20101;-87
2023/08/21 02:47:39;;;;;;;9.52;3.90;;;15.00;99.90;;;;;;5093370;28;20044;-88
2023/08/21 02:50:07;;;;;;;9.52;4.47;;;15.00;99.90;;;;;;5093205;28;20044;-88
2023/08/21 02:52:35;;;;;;;9.05;4.38;;;15.00;99.90;;;;;;5076985;28;20044;-88
2023/08/21 02:55:02;;;;;;;8.80;4.75;;;14.90;99.90;;;;;;5093509;28;20568;-88
2023/08/21 02:57:29;;;;;;;7.03;3.95;;;14.90;99.90;;;;;;5076935;28;20044;-88
2023/08/21 02:59:56;;;;;;;8.98;4.15;;;14.90;99.90;;;;;;5093349;28;20063;-88
2023/08/21 03:02:23;;;;;;;10.98;4.38;;;14.90;99.90;;;;;;5060293;28;20127;-88
2023/08/21 03:04:50;;;;;;;10.45;4.47;;;14.80;99.90;;;;;;5076340;28;20040;-88
2023/08/21 03:07:18;;;;;;;10.45;4.55;;;14.80;99.90;;;;;;5092795;28;20032;-88
2023/08/21 03:09:49;;;;;;;10.40;4.15;;;14.80;99.90;;;;;;5076669;28;20127;-88
2023/08/21 03:12:16;;;;;;;11.68;4.20;;;14.90;99.90;;;;;;5076521;28;20040;-88
2023/08/21 03:14:43;;;;;;;9.43;4.30;;;14.80;99.90;;;;;;5076500;28;20047;-88
2023/08/21 03:17:09;;;;;;;7.70;3.70;;;14.70;99.90;;;;;;5060487;28;20045;-88
2023/08/21 03:19:36;;;;;;;7.53;4.10;;;14.70;99.90;;;;;;5059740;28;20043;-88
2023/08/21 03:22:03;;;;;;;8.90;4.35;;;14.70;99.90;;;;;;5059817;28;20560;-88
2023/08/21 03:24:30;;;;;;;9.63;4.63;;;14.70;99.90;;;;;;5075969;28;20044;-88
2023/08/21 03:26:57;;;;;;;9.38;4.10;;;14.70;99.90;;;;;;5109904;28;20476;-88
2023/08/21 03:29:23;;;;;;;8.85;4.28;;;14.70;99.90;;;;;;5092506;28;20072;-88
2023/08/21 03:31:56;;;;;;;8.30;4.00;;;14.70;99.90;;;;;;5059509;28;20475;-88
2023/08/21 03:34:23;;;;;;;8.85;3.92;;;14.60;99.90;;;;;;5092277;28;20044;-88
2023/08/21 03:36:50;;;;;;;11.35;4.22;;;14.60;99.90;;;;;;5093092;28;20094;-88
2023/08/21 03:39:17;;;;;;;10.82;4.45;;;14.60;99.90;;;;;;5059212;28;20076;-88
2023/08/21 03:41:43;;;;;;;7.20;3.83;;;14.60;99.90;;;;;;5092871;28;20047;-88
2023/08/21 03:44:10;;;;;;;7.65;4.47;;;14.50;99.90;;;;;;5076166;28;20094;-88
2023/08/21 03:46:37;;;;;;;8.48;4.18;;;14.50;99.90;;;;;;5075529;28;20128;-88
2023/08/21 03:49:04;;;;;;;8.02;4.10;;;14.50;99.90;;;;;;5075939;28;20036;-88
2023/08/21 03:51:30;;;;;;;7.53;3.78;;;14.50;99.90;;;;;;5091809;28;20040;-88
2023/08/21 03:53:57;;;;;;;6.90;3.78;;;14.50;99.90;;;;;;5059394;28;20501;-88
2023/08/21 03:56:24;;;;;;;10.02;4.25;;;14.40;99.90;;;;;;5059133;28;20040;-88
2023/08/21 03:58:51;;;;;;;9.25;3.85;;;14.50;99.90;;;;;;5059267;28;20098;-88
2023/08/21 04:01:18;;;;;;;7.60;3.40;;;14.40;99.90;;;;;;5058945;28;20397;-88
2023/08/21 04:03:44;;;;;;;5.90;3.88;;;14.40;99.90;;;;;;5059427;28;20043;-88
2023/08/21 04:06:11;;;;;;;7.40;3.65;;;14.40;99.90;;;;;;5075512;28;20091;-89
2023/08/21 04:08:38;;;;;;;7.22;3.70;;;14.40;99.90;;;;;;5058978;28;20036;-88
2023/08/21 04:11:06;;;;;;;9.55;4.03;;;14.30;99.90;;;;;;5058975;28;20071;-88
2023/08/21 04:13:33;;;;;;;7.05;3.50;;;14.30;99.90;;;;;;5091891;28;20125;-89
2023/08/21 04:15:59;;;;;;;7.82;3.85;;;14.30;99.90;;;;;;5059368;28;20095;-88
2023/08/21 04:18:26;;;;;;;8.65;4.20;;;14.30;99.90;;;;;;5058768;28;20051;-88
2023/08/21 04:20:53;;;;;;;9.65;3.88;;;14.30;99.90;;;;;;5059213;28;20043;-88
2023/08/21 04:23:19;;;;;;;6.90;3.65;;;14.30;99.90;;;;;;5058617;28;20091;-88
2023/08/21 04:25:46;;;;;;;8.30;3.95;;;14.30;99.90;;;;;;5058781;28;20374;-88
2023/08/21 04:28:13;;;;;;;7.50;3.95;;;14.30;99.90;;;;;;5059274;28;20036;-88
2023/08/21 04:30:41;;;;;;;5.97;3.70;;;14.30;99.90;;;;;;5075528;28;20037;-88
2023/08/21 04:33:08;;;;;;;7.53;3.58;;;14.30;99.90;;;;;;5075668;28;20032;-88
2023/08/21 04:35:38;;;;;;;8.50;3.50;;;14.30;99.90;;;;;;5091690;28;20554;-88
2023/08/21 04:38:05;;;;;;;10.38;3.40;;;14.20;99.90;;;;;;5075377;28;20578;-88
2023/08/21 04:40:32;;;;;;;5.18;3.30;;;14.20;99.90;;;;;;5075406;28;20044;-88
2023/08/21 04:42:58;;;;;;;8.80;4.53;;;14.20;99.90;;;;;;5058410;28;20040;-88
2023/08/21 04:45:25;;;;;;;8.18;3.17;;;14.20;99.90;;;;;;5058288;28;20041;-88
2023/08/21 04:47:52;;;;;;;7.43;3.80;;;14.20;99.90;;;;;;5075274;28;20052;-88
2023/08/21 04:50:19;;;;;;;6.40;3.42;;;14.20;99.90;;;;;;5075278;28;20044;-88
2023/08/21 04:52:45;;;;;;;5.40;3.50;;;14.20;99.90;;;;;;5074745;28;20076;-88
2023/08/21 04:55:12;;;;;;;6.45;3.53;;;14.20;99.90;;;;;;5091639;28;20098;-88
2023/08/21 04:57:39;;;;;;;5.82;3.42;;;14.20;99.90;;;;;;5075129;28;20097;-88
2023/08/21 05:00:06;;;;;;;9.07;3.78;;;14.30;99.90;;;;;;5091764;28;20397;-88
2023/08/21 05:02:34;;;;;;;5.32;3.45;;;14.30;99.90;;;;;;5057711;28;20044;-88
2023/08/21 05:05:01;;;;;;;8.25;3.67;;;14.30;99.90;;;;;;5074966;28;20409;-89
2023/08/21 05:07:27;;;;;;;6.65;3.50;;;14.30;99.90;;;;;;5057787;28;20037;-89
2023/08/21 05:09:54;;;;;;;8.93;3.67;;;14.30;99.90;;;;;;5058637;28;20037;-88
2023/08/21 05:12:21;;;;;;;9.30;3.95;;;14.40;99.90;;;;;;5058413;28;20458;-89
2023/08/21 05:14:48;;;;;;;6.95;4.18;;;14.40;99.90;;;;;;5090907;28;20052;-89
2023/08/21 05:17:14;;;;;;;7.32;3.70;;;14.40;99.90;;;;;;5091112;28;20079;-88
2023/08/21 05:19:41;;;;;;;5.63;3.70;;;14.40;99.90;;;;;;5074360;28;20191;-88
2023/08/21 05:22:08;;;;;;;7.88;3.15;;;14.40;99.90;;;;;;5058460;28;20122;-89
2023/08/21 05:24:34;;;;;;;7.25;3.83;;;14.50;99.90;;;;;;5074213;28;20131;-89
2023/08/21 05:27:01;;;;;;;6.43;3.15;;;14.50;99.90;;;;;;5074938;28;20245;-88
2023/08/21 05:29:28;;;;;;;7.70;3.50;;;14.60;99.90;;;;;;5057442;28;20148;-87
2023/08/21 05:31:54;;;;;;;9.60;3.63;;;14.60;99.90;;;;;;5057897;28;20127;-89
2023/08/21 05:34:21;;;;;;;8.95;3.80;;;14.60;99.90;;;;;;5058115;28;20051;-88
2023/08/21 05:36:48;;;;;;;7.00;3.45;;;14.70;99.90;;;;;;5073949;28;20135;-88
2023/08/21 05:39:15;;;;;;;5.72;3.33;;;14.60;99.90;;;;;;5073925;28;20131;-89
2023/08/21 05:41:41;;;;;;;8.90;3.78;;;14.70;99.90;;;;;;5057287;28;20082;-88
2023/08/21 05:44:08;;;;;;;8.55;3.72;;;14.80;99.90;;;;;;5074130;28;20044;-89
2023/08/21 05:46:35;;;;;;;8.27;3.97;;;14.90;99.90;;;;;;5073680;28;20052;-88
2023/08/21 05:49:02;;;;;;;9.68;3.97;;;14.90;99.90;;;;;;5057349;28;20044;-88
2023/08/21 05:51:28;;;;;;;11.85;3.80;;;15.00;99.90;;;;;;5090918;28;20393;-89
2023/08/21 05:53:55;;;;;;;9.27;4.30;;;15.00;99.90;;;;;;5073993;28;20469;-89
2023/08/21 05:56:22;;;;;;;9.05;3.80;;;15.10;99.90;;;;;;5090312;28;20083;-89
2023/08/21 05:58:49;;;;;;;7.53;3.65;;;15.10;99.90;;;;;;5089977;28;20048;-89
2023/08/21 06:01:16;;;;;;;10.77;4.00;;;15.20;99.90;;;;;;5057507;28;20098;-88
2023/08/21 06:03:43;;;;;;;7.57;3.60;;;15.30;99.90;;;;;;5073781;28;20071;-88
2023/08/21 06:06:10;;;;;;;10.32;4.10;;;15.40;99.90;;;;;;5057392;28;20070;-89
2023/08/21 06:08:37;;;;;;;14.07;4.43;;;15.40;99.90;;;;;;5057285;28;20128;-88
2023/08/21 06:11:03;;;;;;;9.90;4.15;;;15.50;99.90;;;;;;5090300;28;20075;-88
2023/08/21 06:13:30;;;;;;;11.80;4.68;;;15.60;99.90;;;;;;5073152;28;20036;-89
2023/08/21 06:15:57;;;;;;;8.95;4.03;;;15.70;99.90;;;;;;5056472;28;20032;-88
2023/08/21 06:18:24;;;;;;;9.07;4.22;;;15.80;99.90;;;;;;5057072;28;20404;-88
2023/08/21 06:20:53;;;;;;;11.98;4.78;;;15.90;99.90;;;;;;5073277;28;20036;-89
2023/08/21 06:23:21;;;;;;;13.63;5.72;;;15.90;99.90;;;;;;5074551;28;20093;-88
2023/08/21 06:25:48;;;;;;;9.27;4.60;;;16.00;99.90;;;;;;5106369;28;20402;-88
2023/08/21 06:28:16;;;;;;;11.38;5.10;;;16.10;99.90;;;;;;5073384;28;20032;-89
2023/08/21 06:30:43;;;;;;;9.73;4.70;;;16.20;99.90;;;;;;5089875;28;20488;-89
2023/08/21 06:33:10;;;;;;;8.35;4.38;;;16.30;99.90;;;;;;5073550;28;20075;-88
2023/08/21 06:35:37;;;;;;;10.50;4.38;;;16.30;99.90;;;;;;5056815;28;20064;-88
2023/08/21 06:38:05;;;;;;;10.88;4.28;;;16.40;99.90;;;;;;5073292;28;20041;-89
2023/08/21 06:40:32;;;;;;;13.55;4.32;;;16.50;99.90;;;;;;5090150;28;20040;-89
2023/08/21 06:42:58;;;;;;;9.90;4.50;;;16.50;99.90;;;;;;5056371;28;20040;-89
2023/08/21 06:45:28;;;;;;;11.48;4.50;;;16.60;99.90;;;;;;5073128;28;20036;-88
2023/08/21 06:47:54;;;;;;;9.50;3.60;;;16.70;99.90;;;;;;5073213;28;20087;-88
2023/08/21 06:50:21;;;;;;;11.55;3.55;;;16.70;99.90;;;;;;5073434;28;20044;-89
2023/08/21 06:52:48;;;;;;;8.43;2.70;;;16.80;99.90;;;;;;5057142;28;20044;-88
2023/08/21 06:55:15;;;;;;;6.55;2.45;;;16.90;99.90;;;;;;5073339;28;20044;-89
2023/08/21 06:57:41;;;;;;;8.80;2.80;;;17.00;99.90;;;;;;5072995;28;20051;-89
2023/08/21 07:00:09;;;;;;;8.88;2.85;;;17.10;99.90;;;;;;5057245;28;20043;-89
2023/08/21 07:02:36;;;;;;;6.63;2.45;;;17.20;99.90;;;;;;5073523;28;20048;-89
2023/08/21 07:05:03;;;;;;;11.20;2.50;;;17.20;99.90;;;;;;5056390;28;20078;-89
2023/08/21 07:07:29;;;;;;;7.45;2.30;;;17.30;99.90;;;;;;5056431;28;20040;-89
2023/08/21 07:09:56;;;;;;;5.63;1.90;;;17.40;99.90;;;;;;5073555;28;20057;-88
2023/08/21 07:12:23;;;;;;;5.32;1.92;;;17.50;99.90;;;;;;5089786;28;20040;-89
2023/08/21 07:14:50;;;;;;;6.63;1.80;;;17.60;99.90;;;;;;5089600;28;20044;-89
2023/08/21 07:17:16;;;;;;;8.48;1.65;;;17.70;99.90;;;;;;5089671;28;20044;-89
2023/08/21 07:19:48;;;;;;;5.55;1.48;;;17.80;99.90;;;;;;5072795;28;20051;-89
2023/08/21 07:22:21;;;;;;;4.22;1.30;;;17.90;99.90;;;;;;5090416;28;20036;-87
2023/08/21 07:24:48;;;;;;;7.57;1.52;;;18.00;99.90;;;;;;5071888;28;20063;-87
2023/08/21 07:27:15;;;;;;;4.63;1.58;;;18.10;99.90;;;;;;5108939;28;20500;-87
2023/08/21 07:29:41;;;;;;;2.40;1.20;;;18.20;99.90;;;;;;5092548;28;20044;-87
2023/08/21 07:32:08;;;;;;;6.78;1.08;;;18.30;99.90;;;;;;5092090;28;20036;-87
2023/08/21 07:34:35;;;;;;;5.72;1.58;;;18.40;99.90;;;;;;5076289;28;20032;-87
2023/08/21 07:37:02;;;;;;;4.10;1.20;;;18.50;99.90;;;;;;5075822;28;20048;-88
2023/08/21 07:39:29;;;;;;;3.33;1.27;;;18.60;99.90;;;;;;5092262;28;20040;-87
2023/08/21 07:41:55;;;;;;;4.57;1.20;;;18.60;99.90;;;;;;5059019;28;20041;-87
2023/08/21 07:44:22;;;;;;;3.75;1.00;;;18.70;99.90;;;;;;5076062;28;20048;-87
2023/08/21 07:46:49;;;;;;;6.03;1.20;;;18.80;99.90;;;;;;5059028;28;20623;-88
2023/08/21 07:49:16;;;;;;;3.63;1.00;;;18.90;99.90;;;;;;5076196;28;20084;-87
2023/08/21 07:51:42;;;;;;;3.28;1.33;;;19.00;99.90;;;;;;5059376;28;20555;-87
2023/08/21 07:54:09;;;;;;;3.03;1.20;;;19.10;99.90;;;;;;5091814;28;20131;-88
2023/08/21 07:56:37;;;;;;;5.43;1.10;;;19.20;99.90;;;;;;5059178;28;20480;-87
2023/08/21 07:59:04;;;;;;;3.58;1.10;;;19.30;99.90;;;;;;5092075;28;20040;-88
2023/08/21 08:01:32;;;;;;;6.30;1.30;;;19.50;99.90;;;;;;5075702;28;20067;-87
2023/08/21 08:04:00;;;;;;;6.35;1.30;;;19.60;99.90;;;;;;5075322;28;20105;-87
2023/08/21 08:06:26;;;;;;;3.60;1.10;;;19.70;99.90;;;;;;5059878;28;20039;-87
2023/08/21 08:08:53;;;;;;;4.13;1.23;;;19.80;99.90;;;;;;5058884;28;20040;-87
2023/08/21 08:11:20;;;;;;;4.38;1.27;;;19.90;99.90;;;;;;5058928;28;20044;-87
2023/08/21 08:13:46;;;;;;;8.00;1.23;;;20.00;99.90;;;;;;5092193;28;20044;-88
2023/08/21 08:16:13;;;;;;;6.78;1.30;;;20.20;99.90;;;;;;5058980;28;20110;-88
2023/08/21 08:18:40;;;;;;;5.82;1.42;;;20.30;99.90;;;;;;5075215;28;20040;-87
2023/08/21 08:21:06;;;;;;;2.60;0.95;;;20.50;99.90;;;;;;5091486;28;20071;-88
2023/08/21 08:23:33;;;;;;;5.65;1.50;;;20.60;99.90;;;;;;5075104;28;20037;-88
2023/08/21 08:26:00;;;;;;;7.72;1.40;;;20.70;99.90;;;;;;5075009;28;20556;-88
2023/08/21 08:28:27;;;;;;;3.55;0.98;;;20.70;99.90;;;;;;5058486;28;20032;-88
2023/08/21 08:30:54;;;;;;;6.63;1.50;;;20.90;99.90;;;;;;5075025;28;20067;-88
2023/08/21 08:33:21;;;;;;;8.85;1.23;;;20.90;99.90;;;;;;5091707;28;20123;-88
2023/08/21 08:35:48;;;;;;;3.30;1.20;;;21.00;99.90;;;;;;5075370;28;20083;-88
2023/08/21 08:38:15;;;;;;;5.65;1.13;;;21.10;99.90;;;;;;5074207;28;20097;-88
2023/08/21 08:40:48;;;;;;;4.15;1.10;;;21.20;99.90;;;;;;5091534;28;20040;-88
2023/08/21 08:43:15;;;;;;;4.20;1.30;;;21.30;99.90;;;;;;5091437;28;20496;-88
2023/08/21 08:45:42;;;;;;;5.68;1.10;;;21.40;99.90;;;;;;5075266;28;20045;-88
2023/08/21 08:48:10;;;;;;;4.10;0.95;;;21.50;99.90;;;;;;5094321;28;20055;-89
2023/08/21 08:50:38;;;;;;;3.47;1.17;;;21.60;99.90;;;;;;5078275;28;20036;-88
2023/08/21 08:53:07;;;;;;;6.72;1.20;;;21.70;99.90;;;;;;5078123;28;20044;-88
2023/08/21 08:55:33;;;;;;;3.85;1.00;;;21.70;99.90;;;;;;5078185;28;20042;-88
2023/08/21 08:58:00;;;;;;;5.65;1.00;;;21.80;99.90;;;;;;5094242;28;20440;-88
2023/08/21 09:00:27;;;;;;;3.80;1.00;;;21.90;99.90;;;;;;5078014;28;20488;-88
2023/08/21 09:02:55;;;;;;;5.45;1.30;;;22.00;99.90;;;;;;5077895;28;20052;-88
2023/08/21 09:05:22;;;;;;;2.90;1.30;;;22.10;99.90;;;;;;5061312;28;20463;-88
2023/08/21 09:08:08;;;;;;;6.32;1.23;;;22.20;99.90;;;;;;5061432;28;20046;-88
2023/08/21 09:10:37;;;;;;;4.88;1.20;;;22.30;99.90;;;;;;5094710;28;20093;-88
2023/08/21 09:13:25;;;;;;;5.88;1.60;;;22.40;99.90;;;;;;5093883;28;20036;-88
2023/08/21 09:15:55;;;;;;;3.38;0.90;;;22.40;99.90;;;;;;5111218;28;20075;-88
2023/08/21 09:18:22;;;;;;;3.10;0.95;;;22.50;99.90;;;;;;5061360;28;20565;-88
2023/08/21 09:20:49;;;;;;;2.70;0.80;;;22.60;99.90;;;;;;5077370;28;20040;-88
2023/08/21 09:23:17;;;;;;;2.60;1.05;;;22.60;99.90;;;;;;5093894;28;20044;-88
2023/08/21 09:25:48;;;;;;;3.90;1.15;;;22.60;99.90;;;;;;5093752;28;20079;-88
2023/08/21 09:28:21;;;;;;;5.20;1.00;;;22.80;99.90;;;;;;5078039;28;20043;-88
2023/08/21 09:30:51;;;;;;;4.43;1.10;;;22.80;99.90;;;;;;5094310;28;20044;-88
2023/08/21 09:33:20;;;;;;;2.33;1.02;;;22.90;99.90;;;;;;5093542;28;20040;-87
2023/08/21 09:35:48;;;;;;;3.47;1.10;;;23.00;99.90;;;;;;5077977;28;20092;-88
2023/08/21 09:38:15;;;;;;;4.68;1.10;;;23.10;99.90;;;;;;5094203;28;20044;-88
2023/08/21 09:40:43;;;;;;;3.08;0.90;;;23.10;99.90;;;;;;5061253;28;20400;-88
2023/08/21 09:43:12;;;;;;;3.42;0.90;;;23.20;99.90;;;;;;5076876;28;20040;-88
2023/08/21 09:45:39;;;;;;;3.75;1.02;;;23.30;99.90;;;;;;5110432;28;20028;-88
2023/08/21 09:48:07;;;;;;;5.57;1.13;;;23.40;99.90;;;;;;5093377;28;20080;-88
2023/08/21 09:50:35;;;;;;;3.38;1.08;;;23.50;99.90;;;;;;5077388;28;20040;-88
2023/08/21 09:53:02;;;;;;;3.78;1.10;;;23.70;99.90;;;;;;5093557;28;20036;-88
2023/08/21 09:55:32;;;;;;;2.83;1.00;;;23.70;99.90;;;;;;5077085;28;20048;-88
2023/08/21 09:58:00;;;;;;;6.15;1.30;;;23.70;99.90;;;;;;5093786;28;20079;-89
2023/08/21 10:03:48;;;;;;;4.18;1.02;;;23.80;99.90;;;;;;5029120;28;20056;-88
2023/08/21 10:06:19;;;;;;;2.72;0.90;;;24.00;99.90;;;;;;5062033;28;20412;-88
2023/08/21 10:08:49;;;;;;;4.85;1.13;;;24.10;99.90;;;;;;5093420;28;20058;-88
2023/08/21 10:11:19;;;;;;;4.07;1.02;;;24.10;99.90;;;;;;5076744;28;20492;-88
2023/08/21 10:13:46;;;;;;;3.03;1.00;;;24.20;99.90;;;;;;5094070;28;20043;-88
2023/08/21 10:16:14;;;;;;;2.58;1.00;;;24.20;99.90;;;;;;5076692;28;20089;-88
2023/08/21 10:18:47;;;;;;;7.18;1.27;;;24.30;99.90;;;;;;5076886;28;20051;-88
2023/08/21 10:21:25;;;;;;;4.60;1.02;;;24.40;99.90;;;;;;5093547;28;20058;-88
2023/08/21 10:23:55;;;;;;;4.70;1.13;;;24.40;99.90;;;;;;5093259;28;20044;-87
2023/08/21 10:26:25;;;;;;;3.28;1.02;;;24.50;99.90;;;;;;5093219;28;20044;-88
2023/08/21 10:29:01;;;;;;;2.95;0.88;;;24.60;99.90;;;;;;5092880;28;20044;-88
2023/08/21 10:31:39;;;;;;;4.05;1.10;;;24.60;99.90;;;;;;5093289;28;20036;-88
2023/08/21 10:34:13;;;;;;;4.43;0.98;;;24.60;99.90;;;;;;5092967;28;20559;-88
2023/08/21 10:36:43;;;;;;;1.38;0.60;;;24.70;99.90;;;;;;5093240;28;20039;-88
2023/08/21 10:39:27;;;;;;;3.45;0.95;;;24.60;99.90;;;;;;5093271;28;20131;-89
2023/08/21 10:42:02;;;;;;;2.15;0.80;;;24.70;99.90;;;;;;5093262;28;20036;-89
2023/08/21 10:44:35;;;;;;;;;;;24.80;99.90;;;;;;5077416;28;20143;-88
2023/08/21 10:47:27;;;;;;;2.95;0.95;;;24.70;99.90;;;;;;5092876;28;19927;-88
2023/08/21 10:49:58;;;;;;;2.92;0.95;;;24.90;99.90;;;;;;5092758;28;20051;-88
2023/08/21 10:52:35;;;;;;;3.58;0.85;;;24.90;99.90;;;;;;5092686;28;20128;-89
2023/08/21 10:55:03;;;;;;;4.03;0.80;;;24.90;99.90;;;;;;5092957;28;20135;-88
2023/08/21 10:57:32;;;;;;;2.28;0.90;;;24.90;99.90;;;;;;5076500;28;20048;-88
2023/08/21 11:00:03;;;;;;;5.78;1.00;;;24.90;99.90;;;;;;5092463;28;20044;-88
2023/08/21 11:02:32;;;;;;;2.60;0.98;;;24.90;99.90;;;;;;5096722;28;20050;-88
2023/08/21 11:05:00;;;;;;;2.85;0.80;;;24.90;99.90;;;;;;5080100;28;20479;-88
2023/08/21 11:07:28;;;;;;;2.70;0.85;;;25.00;99.90;;;;;;5112902;28;20090;-88
2023/08/21 11:09:55;;;;;;;5.18;0.90;;;25.00;99.90;;;;;;5097053;28;20040;-88
2023/08/21 11:12:23;;;;;;;3.38;0.90;;;25.00;99.90;;;;;;5096696;28;20046;-88
2023/08/21 11:14:50;;;;;;;4.75;1.10;;;25.20;99.90;;;;;;5096739;28;20048;-88
2023/08/21 11:17:18;;;;;;;2.95;0.60;;;25.20;99.90;;;;;;5096367;28;20054;-88
2023/08/21 11:19:46;;;;;;;2.42;0.80;;;25.30;99.90;;;;;;5080420;28;20503;-88
2023/08/21 11:22:13;;;;;;;2.25;0.70;;;25.40;99.90;;;;;;5079730;28;20385;-89
2023/08/21 11:24:44;;;;;;;2.75;1.10;;;25.40;99.90;;;;;;5063266;28;20051;-88
2023/08/21 11:27:14;;;;;;;3.88;0.90;;;25.40;99.90;;;;;;5096288;28;20043;-88
2023/08/21 11:29:47;;;;;;;2.05;0.90;;;25.40;99.90;;;;;;5096024;28;20484;-89
2023/08/21 11:32:24;;;;;;;3.72;0.93;;;25.40;99.90;;;;;;5096043;28;20101;-88
2023/08/21 11:34:57;;;;;;;4.50;1.00;;;25.50;99.90;;;;;;5096430;28;20165;-88
2023/08/21 11:37:26;;;;;;;3.20;0.93;;;25.50;99.90;;;;;;5095920;28;20043;-88
2023/08/21 11:39:55;;;;;;;4.13;0.98;;;25.40;99.80;;;;;;5079455;28;20450;-88
2023/08/21 11:42:30;;;;;;;2.65;1.00;;;25.60;99.90;;;;;;5096389;28;20048;-88
2023/08/21 11:44:58;;;;;;;4.00;0.85;;;25.70;99.90;;;;;;5096016;28;20402;-88
2023/08/21 11:47:31;;;;;;;5.07;1.17;;;25.70;99.90;;;;;;5059179;28;20057;-89
2023/08/21 11:50:03;;;;;;;2.65;0.73;;;25.80;99.90;;;;;;5093050;28;20043;-88
2023/08/21 11:52:31;;;;;;;4.00;1.02;;;25.90;99.90;;;;;;5092356;28;20040;-88
2023/08/21 11:54:58;;;;;;;5.57;0.95;;;25.80;99.90;;;;;;5076357;28;20037;-88
2023/08/21 11:57:25;;;;;;;2.28;0.82;;;25.70;99.90;;;;;;5075884;28;20098;-88
2023/08/21 11:59:54;;;;;;;3.15;1.08;;;25.90;99.90;;;;;;5076103;28;20048;-88
2023/08/21 12:02:26;;;;;;;2.28;0.75;;;26.00;99.90;;;;;;5092967;28;20049;-89
2023/08/21 12:04:54;;;;;;;2.10;1.02;;;26.00;99.90;;;;;;5092394;28;20084;-89
2023/08/21 12:07:21;;;;;;;5.07;1.20;;;26.20;99.90;;;;;;5092058;28;20032;-88
2023/08/21 12:09:49;;;;;;;2.25;0.68;;;26.20;99.90;;;;;;5092404;28;20576;-89
2023/08/21 12:12:19;;;;;;;4.50;1.10;;;26.30;99.70;;;;;;5075509;28;20080;-89
2023/08/21 12:14:46;;;;;;;3.65;1.05;;;26.30;99.60;;;;;;5092086;28;20082;-88
2023/08/21 12:17:16;;;;;;;1.60;0.70;;;26.30;99.70;;;;;;5092615;28;20574;-88
2023/08/21 12:19:43;;;;;;;2.92;1.00;;;26.30;99.80;;;;;;5092269;28;20071;-88
2023/08/21 12:22:10;;;;;;;4.20;1.00;;;26.30;98.60;;;;;;5059677;28;20388;-88
2023/08/21 12:24:37;;;;;;;2.65;0.82;;;26.30;99.60;;;;;;5075282;28;20037;-88
2023/08/21 12:27:07;;;;;;;2.65;0.80;;;26.20;99.70;;;;;;5075574;28;20036;-89
2023/08/21 12:29:34;;;;;;;2.00;0.80;;;26.30;99.90;;;;;;5074441;28;20493;-89
2023/08/21 12:32:01;;;;;;;3.50;1.23;;;26.30;99.60;;;;;;5075720;28;20477;-89
2023/08/21 12:34:27;;;;;;;3.65;0.88;;;26.30;99.90;;;;;;5074871;28;20051;-88
2023/08/21 12:36:54;;;;;;;2.60;0.70;;;26.40;99.20;;;;;;5059007;28;20078;-89
2023/08/21 12:39:21;;;;;;;4.22;0.90;;;26.50;99.80;;;;;;5075146;28;20145;-88
2023/08/21 12:41:48;;;;;;;2.35;0.90;;;26.50;99.20;;;;;;5058638;28;20044;-88
2023/08/21 12:44:15;;;;;;;2.50;0.90;;;26.50;99.50;;;;;;5075257;28;20055;-89
2023/08/21 12:46:42;;;;;;;3.28;0.80;;;26.30;99.50;;;;;;5075549;28;20044;-89
2023/08/21 12:49:09;;;;;;;4.60;0.80;;;26.30;99.30;;;;;;5095106;28;20046;-88
2023/08/21 12:51:35;;;;;;;2.58;0.80;;;26.30;99.00;;;;;;5094953;28;20080;-89
2023/08/21 12:54:03;;;;;;;2.58;0.93;;;26.20;99.00;;;;;;5078475;28;20036;-88